Stone Creek, OH (43840)

8:34 PM EDT on August 27, 2016 (GMT -0400)
Bakersville, OH | | Change Station

Elev 945 ft 40.37 °N, 81.66 °W | Updated 4 minutes ago

Light Rain
Light Rain
71.2 °F
Feels Like 71.2 °F
N
0.7
Wind Variable Wind from East
Gusts 1.6 mph

Today
High -- | Low -- °F
--% Chance of Precip.
Yesterday
High -- | Low -- °F
Precip. -- in
Pressure 30.13 in
Visibility 9.0 miles
Clouds Scattered Clouds 4600 ft
Mostly Cloudy 7000 ft
Mostly Cloudy 9000 ft
Dew Point 69 °F
Humidity 94%
Rainfall 0.28 in
Snow Depth Not available.
6:49 AM 8:05 PM
Waning Crescent, 20% visible
METAR KPHD 272353Z AUTO 31008G16KT 9SM -RA SCT046 BKN070 BKN090 27/19 A3015 RMK AO2 LTG DSNT N RAB49 SLP203 P0000 60000 T02670189 10339 20267 53008
Pressure 30.13 in
Visibility 9.0 miles
Clouds Scattered Clouds 4600 ft
Mostly Cloudy 7000 ft
Mostly Cloudy 9000 ft
Dew Point 69 °F
Humidity 94%
Rainfall 0.28 in
Snow Depth Not available.
6:49 AM 8:05 PM
Waning Crescent, 20% visible
METAR KPHD 272353Z AUTO 31008G16KT 9SM -RA SCT046 BKN070 BKN090 27/19 A3015 RMK AO2 LTG DSNT N RAB49 SLP203 P0000 60000 T02670189 10339 20267 53008

10-Day Weather Forecast

Almanac

Astronomy

Aug. 27, 2016 Rise Set
Actual Time
Civil Twilight
Nautical Twilight
Astronomical Twilight
Moon
Length of Visible Light
Length of Day
Tomorrow will be .
, % of the Moon is Illuminated

Today's Extremes

State Highs State Lows

Community

WunderPhotos

Upload Photos

1,935,475 photos uploaded!

WunderBlog® & News

Nearby

Air Quality

  Air Quality AQ Index Pollutant
Not available.

Snow Depth

Station Depth Elevation

Earthquake Activity

City Distance Mag. Time & Date
Minimum magnitude displayed is 2.5.

Coastal Water Temperatures

Place Temperature

Stations

Nearby Weather Stations

Station Location Temp. Windchill Dew Point Humidity Wind Precip. Elev Updated Type
                   

Watches & Warnings

There are currently no watches in effect.